Latest Weather Observations for Strahan

IDT60801

Issued at 8:35 pm EST Wednesday 16 April 2014 (issued every 30 minutes, with the page automatically refreshed every 10 minutes)

About weather observations | Map of weather stations | Latest weather observations for TAS | Other Formats
Station Details ID: 097072 Name: STRAHAN AERODROME Lat: -42.16 Lon: 145.29 Height: 21.0 m
Data from the previous 72 hours. | See also: Recent months at Strahan
Date/Time
EST
Temp
°C
App
Temp
°C
Dew
Point
Rel
Hum
%
Delta-T
°C
Wind Press
QNH
hPa
Press
MSL
hPa
Rain
since 9 am
mm
Dir
 
Spd
km/h
Gust
km/h
Spd
kts
Gust
kts
16/08:30pm 13.6 13.7 12.8 95 0.4 SSE 4 6 2 3 1019.9 - 0.0
16/08:03pm 14.3 14.1 13.5 95 0.4 ESE 7 11 4 6 1019.7 - 0.0
16/08:00pm 14.4 14.4 13.6 95 0.4 E 6 11 3 6 1019.7 - 0.0
16/07:38pm 14.3 14.7 13.7 96 0.3 SE 4 9 2 5 1019.7 - 0.0
16/07:30pm 14.3 13.8 13.7 96 0.3 SE 9 13 5 7 1019.7 - 0.0
16/07:26pm 14.3 13.4 13.7 96 0.3 SE 11 13 6 7 1019.7 - 0.0
16/07:00pm 14.3 14.1 13.5 95 0.4 SSE 7 9 4 5 1019.8 - 0.0
16/06:56pm 14.2 13.9 13.2 94 0.6 SSE 7 9 4 5 1019.8 - 0.0
16/06:51pm 14.2 13.5 13.2 94 0.6 SSE 9 11 5 6 1019.8 - 0.0
16/06:33pm 14.1 13.7 13.1 94 0.6 SSE 7 9 4 5 1019.8 - 0.0
16/06:30pm 14.1 13.7 13.1 94 0.6 SSE 7 9 4 5 1019.8 - 0.0
16/06:09pm 14.5 14.2 13.4 93 0.6 SE 7 9 4 5 1019.7 - 0.0
16/06:00pm 14.7 14.6 13.4 92 0.7 S 6 7 3 4 1019.8 1019.7 0.0
16/05:46pm 15.0 14.8 13.5 91 0.8 S 7 9 4 5 1019.8 - 0.0
16/05:30pm 15.2 15.0 13.6 90 0.9 SW 7 9 4 5 1019.8 - 0.0
16/05:00pm 16.2 15.8 13.1 82 1.7 W 7 9 4 5 1019.8 - 0.0
16/04:30pm 16.3 15.7 13.4 83 1.6 W 9 13 5 7 1019.6 - 0.0
16/04:00pm 16.6 14.8 13.3 81 1.8 W 15 19 8 10 1019.5 - 0.0
16/03:30pm 17.0 14.7 13.1 78 2.2 W 17 22 9 12 1019.4 - 0.0
16/03:00pm 16.9 15.0 13.0 78 2.2 WNW 15 19 8 10 1019.3 1019.2 0.0
16/02:30pm 17.5 15.1 12.6 73 2.7 W 17 20 9 11 1019.3 - 0.0
16/02:00pm 18.2 16.2 12.6 70 3.1 WNW 15 20 8 11 1019.3 - 0.0
16/01:30pm 17.2 14.7 11.0 67 3.3 W 15 20 8 11 1019.6 - 0.0
16/01:00pm 18.1 16.1 11.4 65 3.7 WNW 13 17 7 9 1019.9 - 0.0
16/12:30pm 18.1 16.0 11.0 63 3.8 NNW 13 19 7 10 1020.3 - 0.0
16/12:00pm 17.6 15.2 10.2 62 3.9 N 13 22 7 12 1020.6 1020.5 0.0
16/11:30am 17.2 15.1 11.0 67 3.3 NNE 13 19 7 10 1020.9 - 0.0
16/11:00am 16.8 15.1 11.3 70 3.0 NNE 11 19 6 10 1021.0 - 0.0
16/10:30am 15.6 14.8 11.2 75 2.4 WNW 6 9 3 5 1021.2 - 0.0
16/10:00am 15.0 14.0 11.0 77 2.1 NNW 7 11 4 6 1021.5 - 0.0
16/09:30am 14.5 12.1 10.1 75 2.3 NE 13 17 7 9 1021.5 - 0.0
16/09:00am 14.2 11.8 10.2 77 2.1 NNE 13 19 7 10 1021.7 1021.6 0.0
16/08:30am 13.3 10.4 9.7 79 1.8 NNE 15 20 8 11 1021.7 - 0.0
16/08:00am 12.1 9.9 9.3 83 1.4 NE 11 20 6 11 1021.7 - 0.0
16/07:30am 11.5 10.1 9.4 87 1.1 ENE 7 11 4 6 1021.7 - 0.0
16/07:00am 10.9 9.0 9.2 89 0.8 NE 9 13 5 7 1021.6 - 0.0
16/06:30am 10.5 8.6 9.1 91 0.7 NE 9 13 5 7 1021.5 - 0.0
16/06:00am 9.9 8.3 8.8 93 0.5 NE 7 11 4 6 1021.5 1021.4 0.0
16/05:30am 9.2 7.7 8.3 94 0.4 NE 6 11 3 6 1021.4 - 0.0
16/05:00am 9.9 8.4 9.0 94 0.4 ENE 7 11 4 6 1021.7 - 0.0
16/04:30am 9.9 7.6 9.1 95 0.4 NE 11 13 6 7 1021.8 - 0.0
16/04:00am 9.6 7.8 9.3 98 0.1 NE 9 13 5 7 1021.8 - 0.0
16/03:30am 8.8 7.1 8.4 97 0.2 E 7 7 4 4 1022.1 - 0.0
16/03:00am 9.4 7.1 8.9 97 0.2 NE 11 15 6 8 1022.1 1022.1 0.0
16/02:30am 9.6 7.4 9.3 98 0.1 NNE 11 13 6 7 1022.6 - 0.0
16/02:00am 9.0 8.7 8.5 97 0.2 CALM 0 0 0 0 1022.7 - 0.0
16/01:30am 9.4 7.8 8.9 97 0.2 NNE 7 9 4 5 1023.1 - 0.0
16/01:00am 9.6 7.7 9.0 96 0.3 NNE 9 11 5 6 1023.3 - 0.0
16/12:30am 9.9 8.4 9.3 96 0.3 NNE 7 11 4 6 1023.4 - 0.0
16/12:00am 10.2 8.8 9.6 96 0.3 NNE 7 9 4 5 1023.5 1023.5 0.0
 
Date/Time
EST
Temp
°C
App
Temp
°C
Dew
Point
Rel
Hum
%
Delta-T
°C
Wind Press
QNH
hPa
Press
MSL
hPa
Rain
since 9 am
mm
Dir
 
Spd
km/h
Gust
km/h
Spd
kts
Gust
kts
15/11:30pm 10.4 9.0 9.5 94 0.5 NNE 7 9 4 5 1023.7 - 0.0
15/11:00pm 10.9 8.5 10.0 94 0.5 NNE 13 15 7 8 1024.1 - 0.0
15/10:30pm 11.4 9.8 10.3 93 0.6 NNE 9 13 5 7 1024.2 - 0.0
15/10:00pm 11.7 10.5 10.4 92 0.7 N 7 11 4 6 1024.3 - 0.0
15/09:30pm 12.1 10.7 10.8 92 0.7 NNE 9 13 5 7 1024.3 - 0.0
15/09:00pm 12.1 10.3 10.8 92 0.7 NNE 11 13 6 7 1024.1 1024.1 0.0
15/08:30pm 11.8 10.4 10.9 94 0.5 NNE 9 11 5 6 1024.0 - 0.0
15/08:00pm 11.6 10.1 10.7 94 0.5 NNE 9 13 5 7 1024.0 - 0.0
15/07:30pm 11.2 10.1 10.1 93 0.6 NNE 6 9 3 5 1024.0 - 0.0
15/07:00pm 11.1 9.8 10.0 93 0.6 N 7 9 4 5 1024.0 - 0.0
15/06:30pm 12.0 12.1 10.2 89 0.9 CALM 0 0 0 0 1023.7 - 0.0
15/06:19pm 12.3 12.5 10.5 89 0.9 CALM 0 0 0 0 1023.6 - 0.0
15/06:00pm 12.5 12.2 10.2 86 1.2 WSW 2 6 1 3 1023.3 1023.3 0.0
15/05:55pm 12.8 11.8 10.3 85 1.3 WSW 6 7 3 4 1023.3 - 0.0
15/05:30pm 14.0 12.5 10.6 80 1.8 WSW 9 11 5 6 1023.1 - 0.0
15/05:00pm 15.5 13.4 11.3 76 2.3 WSW 13 15 7 8 1023.0 - 0.0
15/04:30pm 16.0 13.7 10.5 70 2.9 WSW 13 15 7 8 1022.9 - 0.0
15/04:00pm 16.6 14.2 10.2 66 3.4 WSW 13 17 7 9 1022.9 - 0.0
15/03:30pm 17.3 15.7 10.2 63 3.8 W 9 13 5 7 1023.1 - 0.0
15/03:00pm 17.7 15.9 11.0 65 3.6 SW 11 20 6 11 1023.2 1023.2 0.0
15/02:30pm 17.5 14.7 11.3 67 3.4 W 17 20 9 11 1023.3 - 0.0
15/02:00pm 17.5 15.7 10.9 65 3.6 W 11 17 6 9 1023.4 - 0.0
15/01:30pm 17.3 15.4 10.4 64 3.7 W 11 17 6 9 1023.6 - 0.0
15/01:00pm 17.0 14.9 11.3 69 3.1 W 13 17 7 9 1023.8 - 0.0
15/12:30pm 17.1 16.0 11.8 71 2.9 SW 9 15 5 8 1024.2 - 0.0
15/12:00pm 15.3 14.1 10.3 72 2.6 S 7 11 4 6 1024.6 1024.6 0.0
15/11:30am 15.6 14.7 11.2 75 2.4 SSW 7 13 4 7 1024.9 - 0.0
15/11:00am 15.0 14.2 11.6 80 1.8 S 7 11 4 6 1025.1 - 0.0
15/10:30am 14.3 13.4 11.5 83 1.5 SSE 7 11 4 6 1025.2 - 0.0
15/10:00am 14.0 12.8 11.5 85 1.3 SSE 9 15 5 8 1025.2 - 0.0
15/09:30am 13.4 11.7 11.1 86 1.2 SE 11 15 6 8 1025.3 - 0.0
15/09:00am 13.1 11.3 11.0 87 1.1 SSE 11 17 6 9 1025.3 1025.3 0.0
15/08:30am 12.7 11.7 11.1 90 0.8 ESE 7 13 4 7 1025.3 - 0.0
15/08:00am 12.0 12.4 11.2 95 0.4 CALM 0 6 0 3 1025.1 - 0.0
15/07:30am 11.8 10.9 11.2 96 0.3 N 7 7 4 4 1025.0 - 0.0
15/07:00am 11.3 11.5 10.7 96 0.3 CALM 0 0 0 0 1024.6 - 0.0
15/06:30am 11.4 10.3 10.8 96 0.3 E 7 9 4 5 1024.5 - 0.0
15/06:00am 11.5 9.3 10.7 95 0.4 SE 13 15 7 8 1024.3 1024.3 0.0
15/05:30am 11.6 9.4 10.8 95 0.4 SE 13 17 7 9 1024.3 - 0.0
15/05:00am 11.8 9.7 11.0 95 0.4 SE 13 17 7 9 1024.3 - 0.0
15/04:30am 11.8 9.3 11.0 95 0.4 SE 15 19 8 10 1024.3 - 0.0
15/04:00am 11.9 9.0 11.1 95 0.4 SE 17 20 9 11 1024.2 - 0.0
15/03:30am 12.1 10.0 11.2 94 0.5 SE 13 19 7 10 1024.3 - 0.0
15/03:14am 12.1 9.3 11.2 94 0.5 SE 17 22 9 12 1024.2 - 0.0
15/03:00am 12.1 9.3 11.2 94 0.5 SE 17 20 9 11 1024.2 1024.2 0.0
15/02:30am 12.2 10.2 11.4 95 0.4 SE 13 17 7 9 1024.4 - 0.0
15/02:01am 12.2 10.6 11.4 95 0.4 SE 11 15 6 8 1024.5 - 0.0
15/02:00am 12.2 10.6 11.4 95 0.4 SE 11 15 6 8 1024.5 - 0.0
15/01:30am 12.2 10.1 11.3 94 0.5 SE 13 17 7 9 1024.4 - 0.0
15/01:28am 12.2 10.1 11.3 94 0.5 SE 13 17 7 9 1024.4 - 0.0
15/01:00am 12.5 10.5 11.6 94 0.5 SE 13 15 7 8 1024.4 - 0.0
15/12:30am 12.6 11.0 11.5 93 0.6 SE 11 15 6 8 1024.3 - 0.0
15/12:24am 12.6 11.0 11.5 93 0.6 SE 11 15 6 8 1024.4 - 0.0
15/12:00am 12.6 9.8 11.3 92 0.7 SSE 17 22 9 12 1024.3 1024.3 0.0
 
Date/Time
EST
Temp
°C
App
Temp
°C
Dew
Point
Rel
Hum
%
Delta-T
°C
Wind Press
QNH
hPa
Press
MSL
hPa
Rain
since 9 am
mm
Dir
 
Spd
km/h
Gust
km/h
Spd
kts
Gust
kts
14/11:30pm 12.7 10.4 11.6 93 0.6 SSE 15 20 8 11 1024.4 - 0.0
14/11:27pm 12.7 10.4 11.6 93 0.6 SSE 15 19 8 10 1024.4 - 0.0
14/11:06pm 12.8 11.3 11.9 94 0.5 SE 11 15 6 8 1024.5 - 0.0
14/11:00pm 12.8 10.9 11.9 94 0.5 SE 13 17 7 9 1024.6 - 0.0
14/10:30pm 12.8 11.3 11.9 94 0.5 SSE 11 15 6 8 1024.6 - 0.0
14/10:00pm 12.8 10.1 11.7 93 0.6 SSE 17 24 9 13 1024.7 - 0.0
14/09:30pm 12.5 9.7 11.4 93 0.6 SE 17 20 9 11 1024.7 - 0.0
14/09:00pm 12.8 10.1 11.7 93 0.6 SSE 17 26 9 14 1024.8 1024.8 0.0
14/08:52pm 12.8 10.2 11.9 94 0.5 SSE 17 24 9 13 1024.7 - 0.0
14/08:31pm 13.1 11.8 12.5 96 0.3 SE 11 17 6 9 1024.7 - 0.0
14/08:30pm 13.1 11.8 12.5 96 0.3 SE 11 17 6 9 1024.7 - 0.0
14/08:00pm 13.3 10.3 12.5 95 0.4 SSE 20 26 11 14 1024.4 - 0.0
14/07:30pm 12.7 11.3 12.1 96 0.3 S 11 15 6 8 1024.4 - 0.0
14/07:19pm 12.6 11.9 12.0 96 0.3 S 7 9 4 5 1024.4 - 0.0
14/07:05pm 12.4 11.8 11.6 95 0.4 S 6 7 3 4 1024.4 - 0.0
14/07:00pm 12.3 11.6 11.5 95 0.4 S 6 9 3 5 1024.4 - 0.0
14/06:30pm 12.7 11.2 11.8 94 0.5 SSW 11 11 6 6 1024.1 - 0.0
14/06:00pm 13.0 11.1 11.9 93 0.6 SW 13 15 7 8 1024.0 1024.0 0.0
14/05:30pm 13.6 11.8 12.0 90 0.9 SW 13 15 7 8 1023.8 - 0.0
14/05:00pm 15.4 13.2 12.0 80 1.8 SW 15 19 8 10 1023.6 - 0.0
14/04:30pm 16.1 13.7 12.7 80 1.9 SSW 17 20 9 11 1023.6 - 0.0
14/04:00pm 16.0 14.0 12.6 80 1.9 SW 15 19 8 10 1023.6 - 0.0
14/03:30pm 16.9 14.0 13.0 78 2.2 WSW 20 24 11 13 1023.6 - 0.0
14/03:00pm 17.5 14.6 13.0 75 2.5 WSW 20 26 11 14 1023.4 1023.4 0.0
14/02:30pm 17.8 15.0 12.7 72 2.8 WSW 19 26 10 14 1023.4 - 0.0
14/02:00pm 17.1 14.6 12.4 74 2.6 WSW 17 20 9 11 1023.5 - 0.0
14/01:30pm 17.3 14.4 12.4 73 2.7 WSW 19 24 10 13 1023.7 - 0.0
14/01:00pm 17.0 13.9 12.3 74 2.6 WSW 20 26 11 14 1024.0 - 0.0
14/12:30pm 17.2 15.8 11.0 67 3.3 S 9 13 5 7 1024.3 - 0.0
14/12:00pm 16.7 15.2 10.5 67 3.3 S 9 15 5 8 1024.5 1024.5 0.0
14/11:30am 17.0 15.2 10.8 67 3.3 S 11 17 6 9 1024.7 - 0.0
14/11:00am 16.5 15.6 10.6 68 3.1 S 6 13 3 7 1024.7 - 0.0
14/10:30am 16.0 15.1 11.4 74 2.5 SSW 7 13 4 7 1024.9 - 0.0
14/10:00am 15.7 15.0 11.3 75 2.4 ESE 6 7 3 4 1024.8 - 0.0
14/09:30am 15.0 14.6 12.9 87 1.2 SE 7 11 4 6 1024.9 - 0.0
14/09:00am 14.5 14.4 13.2 92 0.7 SE 6 9 3 5 1025.0 1025.0 0.8
14/08:30am 12.8 13.6 12.5 98 0.2 CALM 0 0 0 0 1024.8 - 0.8
14/08:00am 11.3 11.7 11.1 99 0.1 CALM 0 0 0 0 1024.7 - 0.8
14/07:30am 10.8 9.3 10.6 99 0.1 ENE 9 11 5 6 1024.4 - 0.8
14/07:13am 10.2 10.3 10.0 99 0.1 CALM 0 0 0 0 1024.4 - 0.8
14/07:00am 9.8 9.8 9.7 99 0.1 CALM 0 0 0 0 1024.3 - 0.8
14/06:53am 9.3 9.1 9.2 99 0.0 CALM 0 0 0 0 1024.3 - 0.8
14/06:30am 10.1 10.1 9.9 99 0.1 CALM 0 0 0 0 1024.3 - 0.8
14/06:00am 10.5 10.3 10.3 99 0.1 ENE 2 6 1 3 1024.2 1024.2 0.8
14/05:30am 10.4 10.5 10.2 99 0.1 CALM 0 0 0 0 1024.2 - 0.8
14/05:00am 11.0 11.3 10.8 99 0.1 CALM 0 0 0 0 1024.2 - 0.8
14/04:30am 10.0 10.0 9.9 99 0.1 CALM 0 0 0 0 1024.1 - 0.8
14/04:08am 10.3 10.4 10.1 99 0.1 CALM 0 0 0 0 1023.9 - 0.8
14/04:00am 10.2 10.3 10.0 99 0.1 CALM 0 0 0 0 1023.9 - 0.8
14/03:30am 9.9 9.8 9.6 98 0.1 CALM 0 0 0 0 1023.7 - 0.6
14/03:00am 10.1 10.1 9.8 98 0.1 CALM 0 0 0 0 1023.7 1023.7 0.6
14/02:39am 10.5 10.6 10.0 97 0.3 CALM 0 0 0 0 1023.8 - 0.6
14/02:30am 10.9 11.1 10.4 97 0.3 CALM 0 0 0 0 1023.8 - 0.6
14/02:00am 11.4 11.0 11.1 98 0.2 NE 4 7 2 4 1023.9 - 0.6
14/01:30am 11.7 10.8 11.4 98 0.2 E 7 9 4 5 1023.9 - 0.6
14/01:01am 11.9 11.0 11.4 97 0.3 SE 7 9 4 5 1024.0 - 0.6
14/01:00am 11.9 11.0 11.4 97 0.3 SE 7 9 4 5 1024.0 - 0.6
14/12:30am 11.8 11.0 11.2 96 0.3 S 6 11 3 6 1023.9 - 0.2
14/12:28am 11.9 11.5 11.1 95 0.4 E 4 11 2 6 1023.9 - 0.0
14/12:03am 11.9 11.0 10.8 93 0.6 ENE 6 7 3 4 1023.8 - 0.0
14/12:00am 11.9 11.0 10.8 93 0.6 ENE 6 7 3 4 1023.8 1023.8 0.0
 
Date/Time
EST
Temp
°C
App
Temp
°C
Dew
Point
Rel
Hum
%
Delta-T
°C
Wind Press
QNH
hPa
Press
MSL
hPa
Rain
since 9 am
mm
Dir
 
Spd
km/h
Gust
km/h
Spd
kts
Gust
kts
13/11:42pm 11.8 10.7 10.7 93 0.6 NE 7 9 4 5 1023.9 - 0.0
13/11:30pm 11.9 10.8 10.6 92 0.7 NE 7 7 4 4 1024.0 - 0.0
13/11:22pm 12.0 11.1 10.6 91 0.7 ENE 6 7 3 4 1024.1 - 0.0
13/11:00pm 12.0 11.0 10.4 90 0.8 NE 6 7 3 4 1024.2 - 0.0
13/10:30pm 12.0 10.8 10.2 89 0.9 NNE 7 11 4 6 1024.2 - 0.0
13/10:00pm 11.9 10.2 10.0 88 1.0 N 9 11 5 6 1024.2 - 0.0
13/09:30pm 12.4 11.1 10.1 86 1.2 NNE 7 9 4 5 1024.2 - 0.0
13/09:00pm 13.0 12.0 10.4 84 1.3 NE 6 6 3 3 1024.1 1024.1 0.0

Other Formats:

Comma delimited format used in spreadsheet applications
http://www.bom.gov.au/fwo/IDT60801/IDT60801.94956.axf

JavaScript Object Notation format (JSON) in row-major order
http://www.bom.gov.au/fwo/IDT60801/IDT60801.94956.json